Daysville, Kentucky
Current Conditions -  °F | °C
As of 10:53 AM on Saturday 25 Oct 2014 (Local Time) from KBWG Reporting Station
Overcast Overcast  
Wind Chill: 67°   Ceiling: 3800
Heat Index: 67°   Visibility: 10mi
Dew Point: 54°   Wind: 10mph
Humidity: 63%   Direction: 240°WSW
Pressure: 30.05"   Gusts: NA
Location:  36.8547°N, 86.8859°W
Report Text: KBWG 251553Z AUTO 24009KT 10SM OVC038 19/12 A3005 RMK AO2 SLP175 T01940122
Loading
Personal Weather Stations






























Interactive Weather Map
Tropical Storm Tracking
New forecast layout! Learn more

10-Day Weather Forecast

Advertisements
Track Severe Weather on mobile